createdAt,value
2019-05-05T00:00:44.710Z,0
2019-05-05T00:01:45.018Z,0
2019-05-05T00:02:44.790Z,0
2019-05-05T00:03:44.518Z,0
2019-05-05T00:04:45.435Z,0
2019-05-05T00:05:46.836Z,0
2019-05-05T00:06:44.580Z,0
2019-05-05T00:07:44.889Z,0
2019-05-05T00:08:45.728Z,0
2019-05-05T00:09:44.971Z,0
2019-05-05T00:10:45.217Z,0
2019-05-05T00:11:46.842Z,0
2019-05-05T00:12:44.915Z,0
2019-05-05T00:13:44.695Z,0
2019-05-05T00:14:46.651Z,0
2019-05-05T00:15:44.977Z,0
2019-05-05T00:16:46.848Z,0
2019-05-05T00:17:44.977Z,0
2019-05-05T00:18:44.815Z,0
2019-05-05T00:19:45.463Z,0
2019-05-05T00:20:44.632Z,0
2019-05-05T00:21:44.654Z,0
2019-05-05T00:22:45.489Z,0
2019-05-05T00:23:45.079Z,0
2019-05-05T00:24:46.697Z,0
2019-05-05T00:25:44.779Z,0
2019-05-05T00:26:45.821Z,0
2019-05-05T00:27:45.223Z,0
2019-05-05T00:28:47.079Z,0
2019-05-05T00:29:45.290Z,0
2019-05-05T00:30:44.806Z,0
2019-05-05T00:31:45.359Z,0
2019-05-05T00:32:46.595Z,0
2019-05-05T00:33:44.926Z,0
2019-05-05T00:34:44.506Z,0
2019-05-05T00:35:45.101Z,0
2019-05-05T00:36:46.720Z,0
2019-05-05T00:37:45.031Z,0
2019-05-05T00:38:44.614Z,0
2019-05-05T00:39:45.155Z,0
2019-05-05T00:40:46.702Z,0
2019-05-05T00:41:44.861Z,0
2019-05-05T00:42:45.568Z,0
2019-05-05T00:43:45.069Z,0
2019-05-05T00:44:46.752Z,0
2019-05-05T00:45:45.073Z,0
2019-05-05T00:46:46.798Z,0
2019-05-05T00:47:45.022Z,0
2019-05-05T00:48:46.821Z,0
2019-05-05T00:49:58.638Z,0
2019-05-05T00:50:44.944Z,0
2019-05-05T00:51:46.709Z,0
2019-05-05T00:52:44.588Z,0
2019-05-05T00:53:44.831Z,0
2019-05-05T00:54:44.992Z,0
2019-05-05T00:55:46.638Z,0
2019-05-05T00:56:44.997Z,0
2019-05-05T00:57:45.302Z,0
2019-05-05T00:58:47.023Z,0
2019-05-05T00:59:45.192Z,0
2019-05-05T01:00:46.758Z,0
2019-05-05T01:01:44.806Z,0
2019-05-05T01:02:44.894Z,0
2019-05-05T01:03:44.240Z,0
2019-05-05T01:04:46.886Z,0
2019-05-05T01:05:44.794Z,0
2019-05-05T01:06:45.009Z,0
2019-05-05T01:07:46.781Z,0
2019-05-05T01:08:46.889Z,0
2019-05-05T01:09:45.068Z,0
2019-05-05T01:10:46.430Z,0
2019-05-05T01:11:46.960Z,0
2019-05-05T01:12:45.002Z,0
2019-05-05T01:13:45.475Z,0
2019-05-05T01:14:44.723Z,0
2019-05-05T01:15:44.819Z,0
2019-05-05T01:16:45.589Z,0
2019-05-05T01:17:45.068Z,0
2019-05-05T01:18:45.097Z,0
2019-05-05T01:19:45.519Z,0
2019-05-05T01:20:44.811Z,0
2019-05-05T01:21:45.365Z,0
2019-05-05T01:22:44.788Z,0
2019-05-05T01:23:45.472Z,0
2019-05-05T01:24:45.657Z,0
2019-05-05T01:25:45.490Z,0
2019-05-05T01:26:46.906Z,0
2019-05-05T01:27:45.263Z,0
2019-05-05T01:28:46.831Z,0
2019-05-05T01:29:45.163Z,0
2019-05-05T01:30:44.527Z,0
2019-05-05T01:31:45.158Z,0
2019-05-05T01:32:44.647Z,0
2019-05-05T01:33:44.850Z,0
2019-05-05T01:34:44.405Z,0
2019-05-05T01:35:44.749Z,0
2019-05-05T01:36:45.105Z,0
2019-05-05T01:37:44.311Z,0
2019-05-05T01:38:44.639Z,0
2019-05-05T01:39:45.202Z,0
2019-05-05T01:40:47.044Z,0
2019-05-05T01:41:45.262Z,0
2019-05-05T01:42:47.047Z,0
2019-05-05T01:43:45.163Z,0
2019-05-05T01:44:44.836Z,0
2019-05-05T01:45:45.292Z,0
2019-05-05T01:46:46.622Z,0
2019-05-05T01:47:45.244Z,0
2019-05-05T01:48:46.642Z,0
2019-05-05T01:49:45.209Z,0
2019-05-05T01:50:45.266Z,0
2019-05-05T01:51:47.106Z,0
2019-05-05T01:52:45.072Z,0
2019-05-05T01:53:46.356Z,0
2019-05-05T01:54:46.970Z,0
2019-05-05T01:55:45.147Z,0
2019-05-05T01:56:46.929Z,0
2019-05-05T01:57:45.019Z,0
2019-05-05T01:58:44.242Z,0
2019-05-05T01:59:44.824Z,0
2019-05-05T02:00:45.175Z,0
2019-05-05T02:01:46.586Z,0
2019-05-05T02:02:44.815Z,0
2019-05-05T02:03:46.629Z,0
2019-05-05T02:04:44.653Z,0
2019-05-05T02:05:45.235Z,0
2019-05-05T02:06:46.649Z,0
2019-05-05T02:07:44.805Z,0
2019-05-05T02:08:45.407Z,0
2019-05-05T02:09:47.177Z,0
2019-05-05T02:10:45.295Z,0
2019-05-05T02:11:45.249Z,0
2019-05-05T02:12:47.107Z,0
2019-05-05T02:13:45.046Z,0
2019-05-05T02:14:46.817Z,0
2019-05-05T02:15:44.548Z,0
2019-05-05T02:16:45.145Z,0
2019-05-05T02:17:46.899Z,0
2019-05-05T02:18:45.018Z,0
2019-05-05T02:19:46.652Z,0
2019-05-05T02:20:45.040Z,0
2019-05-05T02:21:45.360Z,0
2019-05-05T02:22:46.915Z,0
2019-05-05T02:23:45.282Z,0
2019-05-05T02:24:46.937Z,0
2019-05-05T02:25:44.726Z,0
2019-05-05T02:26:45.527Z,0
2019-05-05T02:27:44.657Z,0
2019-05-05T02:28:45.294Z,0
2019-05-05T02:29:46.779Z,0
2019-05-05T02:30:48.815Z,0
2019-05-05T02:31:47.654Z,0
2019-05-05T02:32:47.470Z,0
2019-05-05T02:33:45.943Z,0
2019-05-05T02:34:48.037Z,0
2019-05-05T02:35:45.797Z,0
2019-05-05T02:36:48.099Z,0
2019-05-05T02:37:48.324Z,0
2019-05-05T02:38:48.498Z,0
2019-05-05T02:40:10.095Z,0
2019-05-05T02:40:45.162Z,0
2019-05-05T02:41:45.169Z,0
2019-05-05T02:42:47.971Z,0
2019-05-05T02:43:44.925Z,0
2019-05-05T02:44:45.486Z,0
2019-05-05T02:45:46.428Z,0
2019-05-05T02:46:47.069Z,0
2019-05-05T02:47:47.232Z,0
2019-05-05T02:48:47.443Z,0
2019-05-05T02:49:47.706Z,0
2019-05-05T02:51:14.653Z,0
2019-05-05T02:51:47.144Z,0
2019-05-05T02:52:44.276Z,0
2019-05-05T02:53:44.479Z,0
2019-05-05T02:54:44.196Z,0
2019-05-05T02:55:46.585Z,0
2019-05-05T02:56:45.978Z,0
2019-05-05T02:57:46.287Z,0
2019-05-05T02:58:44.359Z,0
2019-05-05T02:59:45.885Z,0
2019-05-05T03:00:46.083Z,0
2019-05-05T03:01:44.591Z,0
2019-05-05T03:02:45.876Z,0
2019-05-05T03:03:43.853Z,0
2019-05-05T03:04:44.317Z,0
2019-05-05T03:05:45.775Z,0
2019-05-05T03:06:46.033Z,0
2019-05-05T03:07:43.835Z,0
2019-05-05T03:08:43.942Z,0
2019-05-05T03:09:43.995Z,0
2019-05-05T03:10:44.285Z,0
2019-05-05T03:11:46.030Z,0
2019-05-05T03:12:46.291Z,0
2019-05-05T03:13:44.193Z,0
2019-05-05T03:14:44.583Z,0
2019-05-05T03:15:44.128Z,0
2019-05-05T03:16:43.613Z,0
2019-05-05T03:17:44.455Z,0
2019-05-05T03:18:43.938Z,0
2019-05-05T03:19:44.393Z,0
2019-05-05T03:20:43.650Z,0
2019-05-05T03:21:44.131Z,0
2019-05-05T03:22:43.549Z,0
2019-05-05T03:23:43.989Z,0
2019-05-05T03:24:44.631Z,0
2019-05-05T03:25:43.970Z,0
2019-05-05T03:26:44.331Z,0
2019-05-05T03:27:44.517Z,0
2019-05-05T03:28:43.869Z,0
2019-05-05T03:29:44.155Z,0
2019-05-05T03:30:47.926Z,0
2019-05-05T03:31:47.989Z,0
2019-05-05T03:32:48.115Z,0
2019-05-05T03:33:48.244Z,0
2019-05-05T03:34:44.491Z,0
2019-05-05T03:35:45.760Z,0
2019-05-05T03:36:44.159Z,0
2019-05-05T03:37:44.583Z,0
2019-05-05T03:38:44.359Z,0
2019-05-05T03:39:44.443Z,0
2019-05-05T03:40:43.683Z,0
2019-05-05T03:41:43.834Z,0
2019-05-05T03:42:44.244Z,0
2019-05-05T03:43:43.562Z,0
2019-05-05T03:44:44.031Z,0
2019-05-05T03:45:44.470Z,0
2019-05-05T03:46:46.240Z,0
2019-05-05T03:47:44.046Z,0
2019-05-05T03:48:43.881Z,0
2019-05-05T03:49:44.160Z,0
2019-05-05T03:50:44.597Z,0
2019-05-05T03:51:46.203Z,0
2019-05-05T03:52:46.190Z,0
2019-05-05T03:53:44.057Z,0
2019-05-05T03:54:45.915Z,0
2019-05-05T03:55:44.015Z,0
2019-05-05T03:56:44.230Z,0
2019-05-05T03:57:44.448Z,0
2019-05-05T03:58:45.833Z,0
2019-05-05T03:59:44.235Z,0
2019-05-05T04:00:43.341Z,0
2019-05-05T04:01:44.001Z,0
2019-05-05T04:02:44.493Z,0
2019-05-05T04:03:43.547Z,0
2019-05-05T04:04:44.095Z,0
2019-05-05T04:05:44.430Z,0
2019-05-05T04:06:44.551Z,0
2019-05-05T04:07:43.967Z,0
2019-05-05T04:08:44.417Z,0
2019-05-05T04:09:46.102Z,0
2019-05-05T04:10:43.908Z,0
2019-05-05T04:11:44.368Z,0
2019-05-05T04:12:45.872Z,0
2019-05-05T04:13:46.134Z,0
2019-05-05T04:14:46.413Z,0
2019-05-05T04:15:44.156Z,0
2019-05-05T04:16:45.894Z,0
2019-05-05T04:17:44.274Z,0
2019-05-05T04:18:43.587Z,0
2019-05-05T04:19:45.977Z,5
2019-05-05T04:20:44.138Z,5
2019-05-05T04:21:47.349Z,5
2019-05-05T04:22:43.578Z,5
2019-05-05T04:23:44.155Z,5
2019-05-05T04:24:43.713Z,5
2019-05-05T04:25:46.387Z,10
2019-05-05T04:26:44.028Z,10
2019-05-05T04:27:44.460Z,10
2019-05-05T04:28:46.009Z,10
2019-05-05T04:29:46.363Z,10
2019-05-05T04:30:44.428Z,15
2019-05-05T04:31:45.901Z,15
2019-05-05T04:32:43.977Z,15
2019-05-05T04:33:44.451Z,15
2019-05-05T04:34:46.427Z,15
2019-05-05T04:35:44.396Z,10
2019-05-05T04:36:44.349Z,15
2019-05-05T04:37:43.675Z,15
2019-05-05T04:38:46.272Z,10
2019-05-05T04:39:44.317Z,10
2019-05-05T04:40:45.667Z,10
2019-05-05T04:41:44.011Z,10
2019-05-05T04:42:44.035Z,10
2019-05-05T04:43:44.134Z,10
2019-05-05T04:44:44.839Z,10
2019-05-05T04:45:45.971Z,10
2019-05-05T04:46:44.161Z,10
2019-05-05T04:47:43.659Z,10
2019-05-05T04:48:43.954Z,10
2019-05-05T04:49:44.491Z,10
2019-05-05T04:50:46.421Z,10
2019-05-05T04:51:58.640Z,10
2019-05-05T04:52:43.508Z,10
2019-05-05T04:53:43.921Z,15
2019-05-05T04:54:43.893Z,15
2019-05-05T04:55:44.243Z,15
2019-05-05T04:56:44.725Z,20
2019-05-05T04:57:43.637Z,20
2019-05-05T04:58:43.984Z,20
2019-05-05T04:59:44.420Z,20
2019-05-05T05:00:44.088Z,20
2019-05-05T05:01:43.985Z,25
2019-05-05T05:02:45.944Z,30
2019-05-05T05:03:43.911Z,30
2019-05-05T05:04:44.054Z,30
2019-05-05T05:05:44.180Z,30
2019-05-05T05:06:43.647Z,25
2019-05-05T05:07:43.958Z,30
2019-05-05T05:08:44.300Z,30
2019-05-05T05:09:45.564Z,30
2019-05-05T05:10:46.156Z,30
2019-05-05T05:11:44.264Z,30
2019-05-05T05:12:45.988Z,30
2019-05-05T05:13:46.437Z,25
2019-05-05T05:14:44.079Z,30
2019-05-05T05:15:44.594Z,35
2019-05-05T05:16:43.686Z,35
2019-05-05T05:17:44.249Z,35
2019-05-05T05:18:44.552Z,35
2019-05-05T05:19:43.663Z,35
2019-05-05T05:20:44.247Z,35
2019-05-05T05:21:58.205Z,30
2019-05-05T05:22:43.952Z,30
2019-05-05T05:23:44.324Z,35
2019-05-05T05:24:44.647Z,35
2019-05-05T05:25:43.890Z,35
2019-05-05T05:26:44.126Z,35
2019-05-05T05:27:44.275Z,35
2019-05-05T05:28:44.725Z,35
2019-05-05T05:29:43.788Z,35
2019-05-05T05:30:43.886Z,35
2019-05-05T05:31:44.239Z,35
2019-05-05T05:32:46.837Z,35
2019-05-05T05:33:43.777Z,35
2019-05-05T05:34:45.739Z,40
2019-05-05T05:35:44.093Z,40
2019-05-05T05:36:44.281Z,40
2019-05-05T05:37:44.718Z,45
2019-05-05T05:38:45.829Z,50
2019-05-05T05:39:44.019Z,45
2019-05-05T05:40:44.394Z,45
2019-05-05T05:41:43.346Z,40
2019-05-05T05:42:43.924Z,40
2019-05-05T05:43:43.940Z,45
2019-05-05T05:44:44.419Z,40
2019-05-05T05:45:43.658Z,35
2019-05-05T05:46:43.861Z,35
2019-05-05T05:47:44.167Z,35
2019-05-05T05:48:43.490Z,40
2019-05-05T05:49:41.387Z,40
2019-05-05T05:50:44.294Z,40
2019-05-05T05:51:44.675Z,40
2019-05-05T05:52:40.930Z,40
2019-05-05T05:53:43.750Z,45
2019-05-05T05:54:44.203Z,45
2019-05-05T05:55:44.751Z,45
2019-05-05T05:56:44.646Z,45
2019-05-05T05:57:43.671Z,45
2019-05-05T05:58:44.172Z,45
2019-05-05T05:59:44.444Z,45
2019-05-05T06:00:46.775Z,50
2019-05-05T06:01:43.695Z,50
2019-05-05T06:02:43.911Z,50
2019-05-05T06:03:44.316Z,50
2019-05-05T06:04:44.564Z,50
2019-05-05T06:05:45.920Z,50
2019-05-05T06:06:41.407Z,50
2019-05-05T06:07:44.224Z,60
2019-05-05T06:08:43.733Z,70
2019-05-05T06:09:43.572Z,75
2019-05-05T06:10:44.225Z,70
2019-05-05T06:11:43.573Z,65
2019-05-05T06:12:44.887Z,60
2019-05-05T06:13:44.126Z,60
2019-05-05T06:14:44.662Z,65
2019-05-05T06:15:44.302Z,75
2019-05-05T06:16:44.606Z,80
2019-05-05T06:17:43.366Z,80
2019-05-05T06:18:43.573Z,75
2019-05-05T06:19:44.561Z,70
2019-05-05T06:20:41.187Z,75
2019-05-05T06:21:43.961Z,75
2019-05-05T06:22:44.638Z,70
2019-05-05T06:23:41.167Z,65
2019-05-05T06:24:43.758Z,65
2019-05-05T06:25:47.102Z,60
2019-05-05T06:26:44.509Z,60
2019-05-05T06:27:44.545Z,60
2019-05-05T06:28:41.254Z,60
2019-05-05T06:29:43.621Z,60
2019-05-05T06:30:44.261Z,60
2019-05-05T06:31:44.741Z,60
2019-05-05T06:32:43.584Z,65
2019-05-05T06:33:43.690Z,65
2019-05-05T06:34:44.237Z,65
2019-05-05T06:35:44.267Z,75
2019-05-05T06:36:44.421Z,70
2019-05-05T06:37:43.486Z,65
2019-05-05T06:38:43.548Z,55
2019-05-05T06:39:43.945Z,55
2019-05-05T06:40:41.142Z,55
2019-05-05T06:41:41.119Z,55
2019-05-05T06:42:41.231Z,60
2019-05-05T06:43:41.270Z,60
2019-05-05T06:44:44.204Z,60
2019-05-05T06:45:41.276Z,65
2019-05-05T06:46:41.156Z,75
2019-05-05T06:47:40.932Z,85
2019-05-05T06:48:43.705Z,90
2019-05-05T06:49:43.527Z,90
2019-05-05T06:50:41.407Z,90
2019-05-05T06:51:44.016Z,95
2019-05-05T06:52:56.041Z,100
2019-05-05T06:53:40.950Z,100
2019-05-05T06:54:43.666Z,95
2019-05-05T06:55:41.059Z,95
2019-05-05T06:56:41.462Z,95
2019-05-05T06:57:41.244Z,95
2019-05-05T06:58:41.652Z,90
2019-05-05T06:59:43.842Z,95
2019-05-05T07:00:41.405Z,100
2019-05-05T07:01:41.054Z,105
2019-05-05T07:02:41.461Z,110
2019-05-05T07:03:43.807Z,120
2019-05-05T07:04:40.557Z,135
2019-05-05T07:05:43.497Z,135
2019-05-05T07:06:57.118Z,145
2019-05-05T07:07:43.350Z,145
2019-05-05T07:08:43.555Z,140
2019-05-05T07:09:44.224Z,150
2019-05-05T07:10:40.860Z,150
2019-05-05T07:11:43.453Z,170
2019-05-05T07:12:43.743Z,175
2019-05-05T07:13:40.880Z,170
2019-05-05T07:14:41.055Z,165
2019-05-05T07:15:41.165Z,165
2019-05-05T07:16:41.267Z,160
2019-05-05T07:17:40.848Z,160
2019-05-05T07:18:41.038Z,165
2019-05-05T07:19:41.179Z,170
2019-05-05T07:20:41.380Z,170
2019-05-05T07:21:41.180Z,170
2019-05-05T07:22:55.562Z,175
2019-05-05T07:23:41.342Z,180
2019-05-05T07:24:41.167Z,175
2019-05-05T07:25:54.911Z,180
2019-05-05T07:26:41.259Z,185
2019-05-05T07:27:41.030Z,185
2019-05-05T07:28:40.969Z,190
2019-05-05T07:29:43.428Z,200
2019-05-05T07:30:40.569Z,200
2019-05-05T07:31:41.240Z,205
2019-05-05T07:32:41.047Z,210
2019-05-05T07:33:43.576Z,220
2019-05-05T07:34:40.668Z,215
2019-05-05T07:36:00.365Z,220
2019-05-05T07:36:40.830Z,230
2019-05-05T07:37:43.596Z,225
2019-05-05T07:38:40.696Z,235
2019-05-05T07:39:40.989Z,250
2019-05-05T07:40:41.271Z,230
2019-05-05T07:41:44.688Z,220
2019-05-05T07:42:40.541Z,225
2019-05-05T07:43:43.599Z,225
2019-05-05T07:44:41.126Z,220
2019-05-05T07:45:41.054Z,215
2019-05-05T07:46:43.421Z,215
2019-05-05T07:47:43.462Z,215
2019-05-05T07:48:40.815Z,250
2019-05-05T07:49:40.546Z,250
2019-05-05T07:50:45.059Z,250
2019-05-05T07:51:40.749Z,235
2019-05-05T07:52:41.341Z,235
2019-05-05T07:53:40.541Z,225
2019-05-05T07:54:43.437Z,200
2019-05-05T07:55:41.278Z,190
2019-05-05T07:56:41.589Z,200
2019-05-05T07:57:43.497Z,210
2019-05-05T07:58:43.630Z,220
2019-05-05T07:59:41.243Z,235
2019-05-05T08:00:43.396Z,250
2019-05-05T08:01:43.413Z,255
2019-05-05T08:02:40.883Z,240
2019-05-05T08:03:41.087Z,210
2019-05-05T08:04:43.559Z,210
2019-05-05T08:05:40.532Z,200
2019-05-05T08:06:41.133Z,200
2019-05-05T08:07:40.973Z,195
2019-05-05T08:08:40.688Z,200
2019-05-05T08:09:40.526Z,200
2019-05-05T08:10:43.480Z,195
2019-05-05T08:11:43.325Z,185
2019-05-05T08:12:43.590Z,185
2019-05-05T08:13:40.315Z,185
2019-05-05T08:14:40.898Z,195
2019-05-05T08:15:59.911Z,205
2019-05-05T08:16:40.883Z,215
2019-05-05T08:17:44.703Z,220
2019-05-05T08:18:43.664Z,230
2019-05-05T08:19:43.375Z,235
2019-05-05T08:20:40.828Z,245
2019-05-05T08:21:43.530Z,235
2019-05-05T08:22:41.231Z,270
2019-05-05T08:23:44.481Z,250
2019-05-05T08:24:40.623Z,260
2019-05-05T08:25:50.231Z,300
2019-05-05T08:26:40.706Z,300
2019-05-05T08:27:41.206Z,295
2019-05-05T08:28:43.301Z,300
2019-05-05T08:29:41.276Z,295
2019-05-05T08:30:40.739Z,290
2019-05-05T08:31:40.826Z,320
2019-05-05T08:32:43.591Z,330
2019-05-05T08:33:40.341Z,335
2019-05-05T08:34:54.896Z,330
2019-05-05T08:35:41.648Z,345
2019-05-05T08:36:44.680Z,320
2019-05-05T08:37:43.416Z,340
2019-05-05T08:38:43.902Z,305
2019-05-05T08:39:41.701Z,315
2019-05-05T08:40:43.288Z,350
2019-05-05T08:41:41.032Z,360
2019-05-05T08:42:40.615Z,350
2019-05-05T08:43:41.465Z,340
2019-05-05T08:44:41.518Z,325
2019-05-05T08:45:44.130Z,320
2019-05-05T08:46:40.971Z,320
2019-05-05T08:47:43.387Z,350
2019-05-05T08:48:41.114Z,345
2019-05-05T08:49:43.704Z,310
2019-05-05T08:50:43.845Z,315
2019-05-05T08:51:40.622Z,350
2019-05-05T08:52:41.474Z,350
2019-05-05T08:53:57.053Z,350
2019-05-05T08:54:41.153Z,335
2019-05-05T08:55:41.145Z,325
2019-05-05T08:56:41.282Z,320
2019-05-05T08:57:41.057Z,325
2019-05-05T08:58:41.320Z,335
2019-05-05T08:59:40.690Z,360
2019-05-05T09:00:40.789Z,390
2019-05-05T09:01:41.208Z,385
2019-05-05T09:02:45.961Z,410
2019-05-05T09:03:40.607Z,425
2019-05-05T09:04:41.222Z,425
2019-05-05T09:05:43.467Z,385
2019-05-05T09:06:43.697Z,360
2019-05-05T09:07:40.594Z,355
2019-05-05T09:08:43.839Z,390
2019-05-05T09:09:40.741Z,385
2019-05-05T09:10:41.560Z,360
2019-05-05T09:11:43.508Z,360
2019-05-05T09:12:40.853Z,335
2019-05-05T09:13:40.941Z,325
2019-05-05T09:14:41.748Z,330
2019-05-05T09:15:44.258Z,340
2019-05-05T09:16:40.435Z,400
2019-05-05T09:17:40.833Z,405
2019-05-05T09:18:40.899Z,410
2019-05-05T09:19:41.684Z,415
2019-05-05T09:20:41.931Z,425
2019-05-05T09:21:41.275Z,415
2019-05-05T09:22:41.762Z,345
2019-05-05T09:23:41.281Z,350
2019-05-05T09:24:41.300Z,380
2019-05-05T09:25:40.825Z,435
2019-05-05T09:26:41.094Z,425
2019-05-05T09:27:40.782Z,445
2019-05-05T09:28:41.064Z,430
2019-05-05T09:29:43.690Z,435
2019-05-05T09:30:41.098Z,425
2019-05-05T09:31:41.532Z,425
2019-05-05T09:32:43.657Z,430
2019-05-05T09:33:40.339Z,435
2019-05-05T09:34:41.018Z,425
2019-05-05T09:35:40.910Z,420
2019-05-05T09:36:43.756Z,425
2019-05-05T09:37:41.189Z,425
2019-05-05T09:38:41.920Z,385
2019-05-05T09:39:43.401Z,365
2019-05-05T09:40:40.643Z,365
2019-05-05T09:41:40.902Z,415
2019-05-05T09:42:41.102Z,425
2019-05-05T09:43:41.665Z,430
2019-05-05T09:44:43.759Z,415
2019-05-05T09:45:40.328Z,415
2019-05-05T09:46:44.685Z,410
2019-05-05T09:47:41.572Z,430
2019-05-05T09:48:40.775Z,430
2019-05-05T09:49:41.067Z,415
2019-05-05T09:50:40.869Z,395
2019-05-05T09:51:43.748Z,345
2019-05-05T09:52:40.727Z,400
2019-05-05T09:53:41.685Z,405
2019-05-05T09:54:41.261Z,395
2019-05-05T09:55:40.306Z,415
2019-05-05T09:56:40.610Z,415
2019-05-05T09:57:43.543Z,425
2019-05-05T09:58:43.864Z,430
2019-05-05T09:59:46.422Z,425
2019-05-05T10:00:40.549Z,425
2019-05-05T10:01:40.830Z,355
2019-05-05T10:02:41.411Z,390
2019-05-05T10:03:41.020Z,420
2019-05-05T10:04:39.672Z,365
2019-05-05T10:05:40.874Z,350
2019-05-05T10:06:40.596Z,415
2019-05-05T10:07:43.809Z,415
2019-05-05T10:08:41.340Z,420
2019-05-05T10:09:41.195Z,420
2019-05-05T10:10:40.614Z,415
2019-05-05T10:11:39.780Z,360
2019-05-05T10:12:40.777Z,355
2019-05-05T10:13:40.817Z,390
2019-05-05T10:14:40.852Z,360
2019-05-05T10:15:39.610Z,340
2019-05-05T10:16:38.954Z,335
2019-05-05T10:17:40.611Z,330
2019-05-05T10:18:44.660Z,330
2019-05-05T10:19:39.405Z,330
2019-05-05T10:20:41.508Z,335
2019-05-05T10:21:41.119Z,390
2019-05-05T10:22:41.245Z,355
2019-05-05T10:23:43.433Z,400
2019-05-05T10:24:41.166Z,345
2019-05-05T10:25:41.531Z,345
2019-05-05T10:26:41.301Z,370
2019-05-05T10:27:56.406Z,340
2019-05-05T10:28:41.007Z,345
2019-05-05T10:29:38.821Z,365
2019-05-05T10:30:39.586Z,345
2019-05-05T10:31:43.474Z,370
2019-05-05T10:32:39.334Z,315
2019-05-05T10:33:41.256Z,285
2019-05-05T10:34:40.687Z,240
2019-05-05T10:35:41.267Z,230
2019-05-05T10:36:40.882Z,215
2019-05-05T10:37:43.361Z,210
2019-05-05T10:38:41.047Z,200
2019-05-05T10:39:40.675Z,190
2019-05-05T10:40:41.130Z,175
2019-05-05T10:41:40.719Z,160
2019-05-05T10:42:40.284Z,150
2019-05-05T10:43:43.538Z,150
2019-05-05T10:44:40.753Z,150
2019-05-05T10:45:39.030Z,150
2019-05-05T10:46:41.267Z,155
2019-05-05T10:47:40.644Z,160
2019-05-05T10:48:41.215Z,165
2019-05-05T10:49:40.651Z,175
2019-05-05T10:50:40.838Z,190
2019-05-05T10:51:41.287Z,205
2019-05-05T10:52:40.891Z,220
2019-05-05T10:53:39.476Z,235
2019-05-05T10:54:54.797Z,240
2019-05-05T10:55:41.436Z,245
2019-05-05T10:56:41.141Z,250
2019-05-05T10:57:43.374Z,255
2019-05-05T10:58:41.095Z,255
2019-05-05T10:59:41.151Z,260
2019-05-05T11:00:40.662Z,260
2019-05-05T11:01:39.710Z,265
2019-05-05T11:02:41.527Z,270
2019-05-05T11:03:41.592Z,275
2019-05-05T11:04:40.784Z,280
2019-05-05T11:05:40.626Z,295
2019-05-05T11:06:39.417Z,310
2019-05-05T11:07:41.013Z,315
2019-05-05T11:08:42.099Z,365
2019-05-05T11:09:40.694Z,355
2019-05-05T11:10:41.165Z,345
2019-05-05T11:11:40.994Z,335
2019-05-05T11:12:40.916Z,240
2019-05-05T11:13:42.784Z,225
2019-05-05T11:14:40.883Z,220
2019-05-05T11:15:40.257Z,215
2019-05-05T11:16:39.170Z,210
2019-05-05T11:17:39.139Z,210
2019-05-05T11:18:41.288Z,195
2019-05-05T11:19:40.833Z,185
2019-05-05T11:20:41.014Z,185
2019-05-05T11:21:41.106Z,180
2019-05-05T11:22:43.632Z,180
2019-05-05T11:23:41.435Z,170
2019-05-05T11:24:54.912Z,165
2019-05-05T11:25:40.529Z,165
2019-05-05T11:26:40.871Z,165
2019-05-05T11:27:43.770Z,165
2019-05-05T11:28:41.128Z,170
2019-05-05T11:29:39.533Z,175
2019-05-05T11:30:40.432Z,180
2019-05-05T11:31:41.276Z,185
2019-05-05T11:32:40.924Z,190
2019-05-05T11:33:40.819Z,195
2019-05-05T11:34:40.957Z,205
2019-05-05T11:35:40.206Z,215
2019-05-05T11:36:43.702Z,225
2019-05-05T11:37:41.119Z,230
2019-05-05T11:38:44.529Z,240
2019-05-05T11:39:41.267Z,250
2019-05-05T11:40:39.114Z,265
2019-05-05T11:41:39.052Z,270
2019-05-05T11:42:40.656Z,275
2019-05-05T11:43:40.751Z,290
2019-05-05T11:44:40.466Z,295
2019-05-05T11:45:41.320Z,310
2019-05-05T11:46:41.123Z,315
2019-05-05T11:47:40.877Z,320
2019-05-05T11:48:41.329Z,315
2019-05-05T11:49:40.599Z,310
2019-05-05T11:50:41.073Z,290
2019-05-05T11:51:40.757Z,270
2019-05-05T11:52:40.864Z,255
2019-05-05T11:53:41.218Z,240
2019-05-05T11:54:38.985Z,240
2019-05-05T11:55:40.710Z,225
2019-05-05T11:56:41.140Z,225
2019-05-05T11:57:39.492Z,225
2019-05-05T11:58:41.001Z,225
2019-05-05T11:59:41.250Z,230
2019-05-05T12:00:43.773Z,240
2019-05-05T12:01:38.955Z,240
2019-05-05T12:02:40.418Z,245
2019-05-05T12:03:44.295Z,250
2019-05-05T12:04:38.938Z,250
2019-05-05T12:05:40.929Z,250
2019-05-05T12:06:40.775Z,250
2019-05-05T12:07:41.094Z,250
2019-05-05T12:08:43.501Z,250
2019-05-05T12:09:40.651Z,250
2019-05-05T12:10:43.736Z,255
2019-05-05T12:11:41.157Z,255
2019-05-05T12:12:40.595Z,260
2019-05-05T12:13:39.406Z,260
2019-05-05T12:14:39.147Z,265
2019-05-05T12:15:41.235Z,270
2019-05-05T12:16:39.287Z,285
2019-05-05T12:17:40.641Z,285
2019-05-05T12:18:41.087Z,295
2019-05-05T12:19:40.318Z,300
2019-05-05T12:20:40.850Z,305
2019-05-05T12:21:40.746Z,315
2019-05-05T12:22:40.934Z,320
2019-05-05T12:23:41.046Z,330
2019-05-05T12:24:41.109Z,335
2019-05-05T12:25:39.151Z,340
2019-05-05T12:26:39.558Z,350
2019-05-05T12:27:40.844Z,345
2019-05-05T12:28:43.791Z,345
2019-05-05T12:29:40.872Z,340
2019-05-05T12:30:40.488Z,340
2019-05-05T12:31:40.919Z,340
2019-05-05T12:32:43.659Z,295
2019-05-05T12:33:40.286Z,295
2019-05-05T12:34:40.741Z,285
2019-05-05T12:35:40.660Z,285
2019-05-05T12:36:41.048Z,280
2019-05-05T12:37:41.263Z,275
2019-05-05T12:38:43.706Z,275
2019-05-05T12:39:40.302Z,275
2019-05-05T12:40:40.633Z,275
2019-05-05T12:41:38.847Z,275
2019-05-05T12:42:39.740Z,270
2019-05-05T12:43:40.794Z,265
2019-05-05T12:44:41.013Z,270
2019-05-05T12:45:38.921Z,275
2019-05-05T12:46:40.690Z,295
2019-05-05T12:47:41.364Z,285
2019-05-05T12:48:39.332Z,270
2019-05-05T12:49:40.770Z,260
2019-05-05T12:50:40.530Z,255
2019-05-05T12:51:43.344Z,250
2019-05-05T12:52:40.562Z,250
2019-05-05T12:53:39.268Z,245
2019-05-05T12:54:40.308Z,245
2019-05-05T12:55:53.626Z,250
2019-05-05T12:56:40.904Z,250
2019-05-05T12:57:38.940Z,245
2019-05-05T12:58:40.522Z,245
2019-05-05T12:59:40.570Z,240
2019-05-05T13:00:38.723Z,235
2019-05-05T13:01:40.533Z,235
2019-05-05T13:02:38.495Z,230
2019-05-05T13:03:39.225Z,230
2019-05-05T13:04:40.494Z,230
2019-05-05T13:05:41.183Z,230
2019-05-05T13:06:41.637Z,230
2019-05-05T13:07:40.720Z,230
2019-05-05T13:08:40.643Z,225
2019-05-05T13:09:40.400Z,225
2019-05-05T13:10:40.666Z,225
2019-05-05T13:11:40.931Z,225
2019-05-05T13:12:41.020Z,225
2019-05-05T13:13:39.237Z,230
2019-05-05T13:14:40.817Z,235
2019-05-05T13:15:40.858Z,235
2019-05-05T13:16:49.724Z,235
2019-05-05T13:17:41.024Z,235
2019-05-05T13:18:40.286Z,235
2019-05-05T13:19:39.486Z,235
2019-05-05T13:20:40.557Z,235
2019-05-05T13:21:39.501Z,235
2019-05-05T13:22:40.415Z,235
2019-05-05T13:23:40.652Z,245
2019-05-05T13:24:43.445Z,250
2019-05-05T13:25:53.074Z,220
2019-05-05T13:26:38.973Z,225
2019-05-05T13:27:40.986Z,235
2019-05-05T13:28:39.264Z,245
2019-05-05T13:29:40.509Z,290
2019-05-05T13:30:43.331Z,295
2019-05-05T13:31:40.940Z,295
2019-05-05T13:32:40.297Z,295
2019-05-05T13:33:44.056Z,295
2019-05-05T13:34:38.868Z,295
2019-05-05T13:35:40.923Z,295
2019-05-05T13:36:40.375Z,290
2019-05-05T13:37:40.197Z,280
2019-05-05T13:38:38.949Z,255
2019-05-05T13:39:40.855Z,240
2019-05-05T13:40:39.384Z,245
2019-05-05T13:41:41.119Z,235
2019-05-05T13:42:38.616Z,245
2019-05-05T13:43:41.321Z,240
2019-05-05T13:44:41.331Z,265
2019-05-05T13:45:38.887Z,245
2019-05-05T13:46:40.517Z,260
2019-05-05T13:47:41.288Z,245
2019-05-05T13:48:40.680Z,225
2019-05-05T13:49:38.375Z,245
2019-05-05T13:50:40.969Z,245
2019-05-05T13:51:38.910Z,245
2019-05-05T13:52:40.604Z,275
2019-05-05T13:53:41.384Z,270
2019-05-05T13:54:40.487Z,250
2019-05-05T13:55:39.263Z,250
2019-05-05T13:56:40.466Z,250
2019-05-05T13:57:40.259Z,250
2019-05-05T13:58:39.103Z,255
2019-05-05T13:59:41.304Z,260
2019-05-05T14:00:40.980Z,265
2019-05-05T14:01:40.846Z,265
2019-05-05T14:02:39.865Z,270
2019-05-05T14:03:41.219Z,275
2019-05-05T14:04:39.255Z,275
2019-05-05T14:05:39.262Z,275
2019-05-05T14:06:40.134Z,275
2019-05-05T14:07:38.599Z,270
2019-05-05T14:08:44.727Z,265
2019-05-05T14:09:38.524Z,260